createdAt,value
2023-04-01T00:00:07.878Z,91.82
2023-04-01T00:01:07.851Z,92.02
2023-04-01T00:02:07.878Z,92.12
2023-04-01T00:03:07.927Z,92.12
2023-04-01T00:04:07.890Z,92.32
2023-04-01T00:05:07.800Z,92.32
2023-04-01T00:06:07.845Z,92.02
2023-04-01T00:07:07.798Z,91.50
2023-04-01T00:08:07.774Z,91.50
2023-04-01T00:09:07.761Z,91.61
2023-04-01T00:10:07.741Z,91.61
2023-04-01T00:11:07.740Z,91.61
2023-04-01T00:12:07.732Z,91.40
2023-04-01T00:13:07.719Z,91.30
2023-04-01T00:14:07.783Z,90.69
2023-04-01T00:15:07.711Z,90.89
2023-04-01T00:16:19.959Z,90.79
2023-04-01T00:17:08.760Z,91.09
2023-04-01T00:18:07.689Z,91.09
2023-04-01T00:19:07.721Z,91.30
2023-04-01T00:20:07.670Z,91.30
2023-04-01T00:21:07.640Z,91.20
2023-04-01T00:22:07.630Z,91.09
2023-04-01T00:23:07.620Z,91.20
2023-04-01T00:24:07.602Z,91.30
2023-04-01T00:25:07.599Z,91.50
2023-04-01T00:26:07.583Z,91.50
2023-04-01T00:27:07.585Z,91.71
2023-04-01T00:28:07.563Z,91.61
2023-04-01T00:29:07.550Z,91.50
2023-04-01T00:30:07.534Z,91.61
2023-04-01T00:31:07.582Z,91.61
2023-04-01T00:32:07.633Z,91.30
2023-04-01T00:33:07.537Z,91.40
2023-04-01T00:34:07.507Z,91.71
2023-04-01T00:35:07.504Z,91.71
2023-04-01T00:36:07.536Z,91.82
2023-04-01T00:37:07.493Z,92.02
2023-04-01T00:38:07.479Z,92.02
2023-04-01T00:39:07.458Z,91.61
2023-04-01T00:40:07.475Z,91.50
2023-04-01T00:41:07.468Z,91.71
2023-04-01T00:42:07.434Z,91.71
2023-04-01T00:43:07.410Z,91.91
2023-04-01T00:44:07.403Z,91.91
2023-04-01T00:45:07.412Z,91.82
2023-04-01T00:46:07.385Z,91.71
2023-04-01T00:47:07.442Z,91.50
2023-04-01T00:48:07.500Z,91.61
2023-04-01T00:49:07.344Z,91.86
2023-04-01T00:50:07.342Z,91.55
2023-04-01T00:51:07.328Z,91.65
2023-04-01T00:52:07.335Z,91.86
2023-04-01T00:53:07.317Z,91.86
2023-04-01T00:54:07.303Z,91.65
2023-04-01T00:55:07.285Z,91.86
2023-04-01T00:56:07.280Z,91.96
2023-04-01T00:57:07.311Z,92.06
2023-04-01T00:58:07.261Z,92.06
2023-04-01T00:59:07.241Z,92.06
2023-04-01T01:00:07.245Z,92.27
2023-04-01T01:01:07.276Z,92.27
2023-04-01T01:02:07.315Z,91.75
2023-04-01T01:03:07.222Z,91.44
2023-04-01T01:04:07.197Z,91.44
2023-04-01T01:05:07.183Z,91.65
2023-04-01T01:06:07.178Z,91.65
2023-04-01T01:07:07.179Z,91.75
2023-04-01T01:08:07.177Z,91.75
2023-04-01T01:09:07.139Z,91.65
2023-04-01T01:10:07.136Z,91.35
2023-04-01T01:11:07.119Z,91.44
2023-04-01T01:12:07.152Z,91.61
2023-04-01T01:13:07.099Z,91.65
2023-04-01T01:14:07.094Z,91.65
2023-04-01T01:15:07.083Z,91.65
2023-04-01T01:16:07.085Z,91.44
2023-04-01T01:17:07.072Z,91.75
2023-04-01T01:18:07.133Z,91.86
2023-04-01T01:19:07.044Z,91.75
2023-04-01T01:20:15.504Z,91.75
2023-04-01T01:21:08.020Z,91.75
2023-04-01T01:22:07.028Z,91.96
2023-04-01T01:23:06.994Z,91.86
2023-04-01T01:24:07.007Z,91.75
2023-04-01T01:25:06.990Z,91.75
2023-04-01T01:26:06.976Z,91.75
2023-04-01T01:27:06.976Z,91.86
2023-04-01T01:28:06.950Z,91.86
2023-04-01T01:29:06.943Z,91.75
2023-04-01T01:30:06.931Z,91.75
2023-04-01T01:31:06.933Z,91.75
2023-04-01T01:32:06.911Z,91.75
2023-04-01T01:33:07.045Z,91.75
2023-04-01T01:34:06.892Z,91.44
2023-04-01T01:35:06.885Z,91.55
2023-04-01T01:36:06.903Z,91.86
2023-04-01T01:37:06.851Z,91.75
2023-04-01T01:38:06.878Z,91.65
2023-04-01T01:39:06.836Z,91.75
2023-04-01T01:40:06.830Z,91.55
2023-04-01T01:41:06.821Z,91.65
2023-04-01T01:42:06.806Z,91.55
2023-04-01T01:43:06.842Z,91.75
2023-04-01T01:44:06.813Z,91.86
2023-04-01T01:45:06.810Z,92.06
2023-04-01T01:46:06.835Z,92.16
2023-04-01T01:47:06.758Z,92.27
2023-04-01T01:48:06.821Z,92.06
2023-04-01T01:49:06.725Z,92.06
2023-04-01T01:50:06.731Z,92.06
2023-04-01T01:51:06.715Z,91.96
2023-04-01T01:52:06.699Z,92.06
2023-04-01T01:53:06.708Z,92.16
2023-04-01T01:54:06.695Z,92.27
2023-04-01T01:55:06.666Z,92.27
2023-04-01T01:56:06.677Z,92.27
2023-04-01T01:57:06.714Z,92.36
2023-04-01T01:58:06.659Z,91.86
2023-04-01T01:59:06.630Z,91.96
2023-04-01T02:00:06.624Z,92.06
2023-04-01T02:01:06.627Z,92.06
2023-04-01T02:02:06.601Z,92.16
2023-04-01T02:03:06.650Z,91.96
2023-04-01T02:04:06.612Z,91.96
2023-04-01T02:05:06.568Z,91.96
2023-04-01T02:06:06.566Z,91.96
2023-04-01T02:07:06.555Z,92.06
2023-04-01T02:08:06.558Z,91.96
2023-04-01T02:09:06.530Z,91.86
2023-04-01T02:10:06.517Z,91.96
2023-04-01T02:11:06.510Z,91.96
2023-04-01T02:12:06.508Z,92.06
2023-04-01T02:13:06.493Z,91.96
2023-04-01T02:14:06.482Z,91.86
2023-04-01T02:15:06.527Z,91.75
2023-04-01T02:16:06.506Z,91.86
2023-04-01T02:17:06.469Z,91.96
2023-04-01T02:18:06.539Z,91.96
2023-04-01T02:19:06.417Z,91.96
2023-04-01T02:20:06.422Z,91.96
2023-04-01T02:21:06.402Z,91.86
2023-04-01T02:22:06.396Z,91.65
2023-04-01T02:23:06.395Z,91.55
2023-04-01T02:24:06.367Z,91.65
2023-04-01T02:25:06.372Z,91.55
2023-04-01T02:26:06.354Z,91.65
2023-04-01T02:27:06.335Z,91.75
2023-04-01T02:28:06.351Z,91.86
2023-04-01T02:29:06.315Z,91.75
2023-04-01T02:30:06.312Z,91.75
2023-04-01T02:31:06.346Z,91.75
2023-04-01T02:32:06.291Z,91.96
2023-04-01T02:33:06.383Z,91.86
2023-04-01T02:34:06.280Z,91.75
2023-04-01T02:35:06.254Z,91.86
2023-04-01T02:36:06.280Z,91.86
2023-04-01T02:37:06.238Z,91.75
2023-04-01T02:38:06.238Z,91.86
2023-04-01T02:39:06.226Z,91.86
2023-04-01T02:40:06.214Z,91.96
2023-04-01T02:41:06.199Z,91.96
2023-04-01T02:42:06.186Z,91.96
2023-04-01T02:43:06.199Z,91.86
2023-04-01T02:44:06.169Z,91.75
2023-04-01T02:45:06.149Z,91.86
2023-04-01T02:46:06.154Z,91.86
2023-04-01T02:47:06.193Z,91.75
2023-04-01T02:48:06.202Z,91.55
2023-04-01T02:49:06.107Z,91.55
2023-04-01T02:50:06.110Z,91.44
2023-04-01T02:51:06.100Z,91.55
2023-04-01T02:52:06.103Z,91.55
2023-04-01T02:53:06.115Z,91.65
2023-04-01T02:54:06.080Z,91.65
2023-04-01T02:55:06.052Z,91.75
2023-04-01T02:56:06.066Z,91.75
2023-04-01T02:57:06.066Z,91.75
2023-04-01T02:58:06.035Z,91.55
2023-04-01T02:59:06.024Z,91.44
2023-04-01T03:00:06.011Z,91.44
2023-04-01T03:01:06.005Z,91.24
2023-04-01T03:02:06.042Z,90.93
2023-04-01T03:03:06.118Z,91.03
2023-04-01T03:04:05.974Z,91.14
2023-04-01T03:05:05.952Z,90.93
2023-04-01T03:06:05.944Z,91.03
2023-04-01T03:07:05.929Z,91.14
2023-04-01T03:08:05.938Z,91.14
2023-04-01T03:09:05.915Z,90.93
2023-04-01T03:10:05.918Z,90.83
2023-04-01T03:11:05.899Z,90.83
2023-04-01T03:12:05.895Z,90.93
2023-04-01T03:13:05.888Z,90.83
2023-04-01T03:14:05.871Z,90.83
2023-04-01T03:15:10.963Z,90.83
2023-04-01T03:16:06.909Z,90.73
2023-04-01T03:17:05.828Z,90.73
2023-04-01T03:18:05.934Z,90.62
2023-04-01T03:19:05.809Z,90.73
2023-04-01T03:20:05.821Z,90.32
2023-04-01T03:21:05.791Z,90.22
2023-04-01T03:22:05.781Z,90.22
2023-04-01T03:23:05.774Z,90.32
2023-04-01T03:24:05.762Z,90.32
2023-04-01T03:25:05.745Z,90.42
2023-04-01T03:26:05.744Z,90.42
2023-04-01T03:27:05.717Z,90.32
2023-04-01T03:28:05.732Z,90.32
2023-04-01T03:29:05.712Z,90.32
2023-04-01T03:30:05.920Z,90.22
2023-04-01T03:31:05.735Z,90.22
2023-04-01T03:32:05.680Z,90.32
2023-04-01T03:33:05.712Z,90.22
2023-04-01T03:34:05.655Z,90.11
2023-04-01T03:35:05.650Z,90.22
2023-04-01T03:36:05.669Z,90.22
2023-04-01T03:37:05.623Z,90.11
2023-04-01T03:38:05.633Z,89.70
2023-04-01T03:39:05.615Z,89.81
2023-04-01T03:40:05.590Z,89.90
2023-04-01T03:41:05.573Z,89.70
2023-04-01T03:42:05.577Z,89.60
2023-04-01T03:43:05.606Z,89.70
2023-04-01T03:44:05.551Z,89.70
2023-04-01T03:45:05.539Z,89.81
2023-04-01T03:46:05.570Z,89.81
2023-04-01T03:47:05.523Z,89.70
2023-04-01T03:48:05.540Z,89.81
2023-04-01T03:49:05.505Z,89.60
2023-04-01T03:50:05.504Z,89.50
2023-04-01T03:51:05.474Z,89.60
2023-04-01T03:52:05.478Z,89.60
2023-04-01T03:53:05.470Z,89.60
2023-04-01T03:54:05.456Z,89.50
2023-04-01T03:55:05.435Z,89.39
2023-04-01T03:56:05.459Z,89.39
2023-04-01T03:57:05.462Z,89.50
2023-04-01T03:58:05.427Z,89.39
2023-04-01T03:59:05.392Z,89.50
2023-04-01T04:00:05.393Z,89.50
2023-04-01T04:01:05.375Z,89.60
2023-04-01T04:02:05.385Z,89.50
2023-04-01T04:03:05.427Z,89.50
2023-04-01T04:04:05.419Z,89.50
2023-04-01T04:05:05.336Z,89.50
2023-04-01T04:06:05.348Z,89.39
2023-04-01T04:07:05.310Z,89.39
2023-04-01T04:08:05.318Z,89.19
2023-04-01T04:09:05.308Z,89.29
2023-04-01T04:10:05.293Z,89.39
2023-04-01T04:11:05.272Z,89.29
2023-04-01T04:12:05.283Z,89.39
2023-04-01T04:13:05.264Z,89.54
2023-04-01T04:14:05.253Z,89.54
2023-04-01T04:15:05.276Z,89.64
2023-04-01T04:16:05.282Z,89.60
2023-04-01T04:17:05.215Z,89.64
2023-04-01T04:18:05.232Z,89.60
2023-04-01T04:19:05.187Z,89.70
2023-04-01T04:20:05.197Z,89.70
2023-04-01T04:21:05.174Z,89.54
2023-04-01T04:22:05.213Z,89.60
2023-04-01T04:23:05.163Z,89.64
2023-04-01T04:24:05.145Z,89.75
2023-04-01T04:25:05.127Z,89.84
2023-04-01T04:26:05.135Z,89.75
2023-04-01T04:27:05.109Z,89.54
2023-04-01T04:28:05.113Z,89.64
2023-04-01T04:29:05.096Z,89.75
2023-04-01T04:30:05.080Z,89.84
2023-04-01T04:31:05.065Z,89.95
2023-04-01T04:32:05.133Z,89.95
2023-04-01T04:33:05.091Z,89.95
2023-04-01T04:34:05.050Z,89.84
2023-04-01T04:35:05.032Z,89.64
2023-04-01T04:36:05.100Z,89.75
2023-04-01T04:37:05.010Z,89.75
2023-04-01T04:38:05.003Z,89.84
2023-04-01T04:39:05.044Z,89.95
2023-04-01T04:40:04.979Z,90.05
2023-04-01T04:41:04.962Z,90.05
2023-04-01T04:42:04.996Z,90.05
2023-04-01T04:43:04.957Z,89.95
2023-04-01T04:44:04.961Z,90.26
2023-04-01T04:45:04.926Z,90.46
2023-04-01T04:46:04.914Z,90.56
2023-04-01T04:47:04.919Z,90.46
2023-04-01T04:48:04.941Z,90.36
2023-04-01T04:49:04.904Z,90.46
2023-04-01T04:50:04.893Z,90.46
2023-04-01T04:51:04.880Z,90.46
2023-04-01T04:52:04.873Z,90.46
2023-04-01T04:53:04.848Z,90.56
2023-04-01T04:54:04.846Z,90.56
2023-04-01T04:55:04.824Z,90.77
2023-04-01T04:56:04.814Z,90.56
2023-04-01T04:57:04.833Z,90.56
2023-04-01T04:58:04.799Z,90.26
2023-04-01T04:59:04.804Z,90.36
2023-04-01T05:00:04.777Z,90.56
2023-04-01T05:01:04.790Z,90.56
2023-04-01T05:02:04.820Z,90.67
2023-04-01T05:03:04.921Z,90.77
2023-04-01T05:04:04.758Z,90.77
2023-04-01T05:05:04.720Z,90.56
2023-04-01T05:06:04.708Z,90.56
2023-04-01T05:07:04.699Z,90.56
2023-04-01T05:08:04.696Z,90.67
2023-04-01T05:09:04.705Z,90.77
2023-04-01T05:10:04.676Z,90.67
2023-04-01T05:11:04.952Z,90.77
2023-04-01T05:12:04.655Z,90.67
2023-04-01T05:13:04.656Z,90.56
2023-04-01T05:14:04.635Z,90.67
2023-04-01T05:15:04.643Z,90.50
2023-04-01T05:16:04.615Z,90.16
2023-04-01T05:17:04.713Z,90.20
2023-04-01T05:18:04.612Z,90.20
2023-04-01T05:19:04.567Z,90.09
2023-04-01T05:20:04.513Z,90.20
2023-04-01T05:21:04.500Z,90.26
2023-04-01T05:22:04.556Z,90.20
2023-04-01T05:23:04.537Z,89.78
2023-04-01T05:24:04.550Z,89.89
2023-04-01T05:25:04.515Z,90.09
2023-04-01T05:26:04.616Z,89.78
2023-04-01T05:27:04.507Z,89.89
2023-04-01T05:28:04.491Z,89.99
2023-04-01T05:29:04.500Z,89.95
2023-04-01T05:30:04.465Z,89.95
2023-04-01T05:31:04.480Z,89.99
2023-04-01T05:32:04.454Z,89.89
2023-04-01T05:33:04.500Z,90.05
2023-04-01T05:34:04.438Z,90.20
2023-04-01T05:35:04.422Z,90.30
2023-04-01T05:36:04.454Z,90.20
2023-04-01T05:37:04.374Z,90.30
2023-04-01T05:38:04.336Z,90.50
2023-04-01T05:39:04.362Z,90.50
2023-04-01T05:40:04.307Z,90.50
2023-04-01T05:41:04.306Z,90.50
2023-04-01T05:42:04.294Z,90.61
2023-04-01T05:43:04.282Z,90.81
2023-04-01T05:44:04.280Z,90.91
2023-04-01T05:45:04.259Z,91.12
2023-04-01T05:46:04.314Z,91.22
2023-04-01T05:47:04.285Z,91.33
2023-04-01T05:48:04.283Z,91.53
2023-04-01T05:49:04.238Z,91.74
2023-04-01T05:50:04.214Z,91.94
2023-04-01T05:51:04.212Z,91.33
2023-04-01T05:52:04.195Z,91.63
2023-04-01T05:53:04.188Z,91.84
2023-04-01T05:54:04.183Z,91.74
2023-04-01T05:55:04.155Z,91.84
2023-04-01T05:56:04.167Z,92.35
2023-04-01T05:57:04.184Z,92.46
2023-04-01T05:58:04.126Z,92.35
2023-04-01T05:59:04.148Z,92.25
2023-04-01T06:00:04.120Z,92.14
2023-04-01T06:01:10.236Z,92.14
2023-04-01T06:02:05.076Z,92.14
2023-04-01T06:03:04.204Z,92.25
2023-04-01T06:04:04.204Z,92.25
2023-04-01T06:05:04.056Z,92.14
2023-04-01T06:06:04.038Z,92.55
2023-04-01T06:07:04.028Z,92.76
2023-04-01T06:08:04.022Z,92.66
2023-04-01T06:09:04.143Z,92.55
2023-04-01T06:10:03.998Z,92.55
2023-04-01T06:11:03.987Z,92.55
2023-04-01T06:12:03.988Z,92.66
2023-04-01T06:13:03.968Z,92.76
2023-04-01T06:14:03.972Z,92.35
2023-04-01T06:15:03.954Z,92.35
2023-04-01T06:16:03.938Z,92.55
2023-04-01T06:17:03.930Z,92.66
2023-04-01T06:18:04.028Z,92.66
2023-04-01T06:19:03.924Z,92.76
2023-04-01T06:20:03.891Z,92.76
2023-04-01T06:21:03.902Z,92.66
2023-04-01T06:22:03.882Z,92.66
2023-04-01T06:23:03.884Z,92.55
2023-04-01T06:24:03.867Z,92.35
2023-04-01T06:25:03.855Z,92.35
2023-04-01T06:26:03.838Z,92.46
2023-04-01T06:27:03.834Z,92.66
2023-04-01T06:28:03.816Z,92.66
2023-04-01T06:29:03.836Z,92.86
2023-04-01T06:30:03.848Z,92.97
2023-04-01T06:31:03.790Z,92.55
2023-04-01T06:32:03.867Z,92.66
2023-04-01T06:33:03.822Z,92.76
2023-04-01T06:34:03.783Z,92.86
2023-04-01T06:35:03.754Z,92.76
2023-04-01T06:36:03.821Z,92.66
2023-04-01T06:37:03.726Z,92.86
2023-04-01T06:38:03.707Z,92.76
2023-04-01T06:39:03.730Z,92.55
2023-04-01T06:40:03.699Z,92.76
2023-04-01T06:41:03.705Z,92.97
2023-04-01T06:42:03.675Z,93.07
2023-04-01T06:43:03.679Z,93.07
2023-04-01T06:44:03.665Z,92.86
2023-04-01T06:45:03.668Z,92.97
2023-04-01T06:46:03.730Z,92.97
2023-04-01T06:47:03.628Z,92.86
2023-04-01T06:48:03.672Z,92.86
2023-04-01T06:49:03.622Z,92.76
2023-04-01T06:50:03.588Z,92.66
2023-04-01T06:51:03.588Z,92.46
2023-04-01T06:52:03.567Z,92.55
2023-04-01T06:53:03.572Z,92.66
2023-04-01T06:54:03.563Z,92.66
2023-04-01T06:55:03.552Z,92.55
2023-04-01T06:56:03.554Z,92.46
2023-04-01T06:57:03.548Z,92.66
2023-04-01T06:58:03.524Z,92.55
2023-04-01T06:59:03.551Z,92.55
2023-04-01T07:00:03.494Z,92.66
2023-04-01T07:01:03.514Z,92.66
2023-04-01T07:02:03.482Z,92.66
2023-04-01T07:03:05.515Z,92.66
2023-04-01T07:04:03.531Z,92.66
2023-04-01T07:05:03.447Z,92.76
2023-04-01T07:06:03.430Z,92.86
2023-04-01T07:07:03.414Z,92.66
2023-04-01T07:08:03.409Z,92.55
2023-04-01T07:09:05.527Z,92.55
2023-04-01T07:10:03.386Z,92.25
2023-04-01T07:11:03.405Z,92.46
2023-04-01T07:12:03.362Z,92.55
2023-04-01T07:13:03.352Z,92.55
2023-04-01T07:14:03.352Z,92.66
2023-04-01T07:15:03.367Z,92.86
2023-04-01T07:16:03.363Z,92.86
2023-04-01T07:17:03.381Z,92.86
2023-04-01T07:18:03.397Z,92.76
2023-04-01T07:19:03.316Z,92.76
2023-04-01T07:20:03.295Z,92.55
2023-04-01T07:21:03.299Z,92.14
2023-04-01T07:22:03.257Z,92.46
2023-04-01T07:23:03.248Z,92.66
2023-04-01T07:24:03.268Z,92.76
2023-04-01T07:25:03.226Z,92.76
2023-04-01T07:26:03.221Z,92.72
2023-04-01T07:27:03.218Z,92.55
2023-04-01T07:28:03.199Z,92.51
2023-04-01T07:29:03.213Z,92.61
2023-04-01T07:30:03.168Z,92.82
2023-04-01T07:31:03.189Z,92.72
2023-04-01T07:32:03.155Z,92.72
2023-04-01T07:33:03.173Z,92.72
2023-04-01T07:34:03.140Z,92.51
2023-04-01T07:35:03.143Z,92.31
2023-04-01T07:36:03.178Z,91.90
2023-04-01T07:37:03.109Z,92.00
2023-04-01T07:38:03.089Z,92.21
2023-04-01T07:39:03.107Z,92.31
2023-04-01T07:40:03.093Z,92.31
2023-04-01T07:41:03.065Z,92.41
2023-04-01T07:42:03.089Z,92.72
2023-04-01T07:43:03.065Z,92.61
2023-04-01T07:44:03.112Z,92.41
2023-04-01T07:45:03.073Z,92.51
2023-04-01T07:46:03.075Z,92.21
2023-04-01T07:47:03.033Z,91.80
2023-04-01T07:48:03.042Z,91.90
2023-04-01T07:49:02.989Z,92.00
2023-04-01T07:50:02.984Z,92.21
2023-04-01T07:51:02.970Z,92.31
2023-04-01T07:52:02.951Z,92.31
2023-04-01T07:53:02.991Z,92.41
2023-04-01T07:54:02.978Z,92.51
2023-04-01T07:55:02.958Z,92.51
2023-04-01T07:56:02.914Z,92.10
2023-04-01T07:57:02.933Z,91.90
2023-04-01T07:58:03.338Z,91.90
2023-04-01T07:59:02.919Z,92.10
2023-04-01T08:00:02.892Z,92.00
2023-04-01T08:01:02.920Z,92.00
2023-04-01T08:02:02.964Z,92.00
2023-04-01T08:03:02.950Z,91.38
2023-04-01T08:04:02.930Z,91.59
2023-04-01T08:05:02.915Z,91.90
2023-04-01T08:06:02.816Z,91.80
2023-04-01T08:07:02.813Z,91.90
2023-04-01T08:08:02.793Z,91.90
2023-04-01T08:09:02.788Z,91.69
2023-04-01T08:10:02.812Z,91.69
2023-04-01T08:11:02.773Z,91.96
2023-04-01T08:12:02.761Z,91.96
2023-04-01T08:13:02.745Z,92.16
2023-04-01T08:14:02.722Z,92.16
2023-04-01T08:15:02.738Z,91.65
2023-04-01T08:16:02.770Z,91.65
2023-04-01T08:17:02.706Z,91.55
2023-04-01T08:18:02.765Z,91.24
2023-04-01T08:19:02.714Z,91.24
2023-04-01T08:20:02.714Z,91.24
2023-04-01T08:21:02.657Z,91.24
2023-04-01T08:22:02.648Z,91.44
2023-04-01T08:23:02.677Z,91.55
2023-04-01T08:24:02.631Z,91.44
2023-04-01T08:25:02.621Z,91.14
2023-04-01T08:26:02.601Z,91.14
2023-04-01T08:27:02.589Z,91.14
2023-04-01T08:28:02.578Z,91.03
2023-04-01T08:29:02.578Z,90.52
2023-04-01T08:30:02.585Z,90.22
2023-04-01T08:31:02.571Z,90.22
2023-04-01T08:32:02.710Z,90.52
2023-04-01T08:33:02.561Z,90.69
2023-04-01T08:34:02.512Z,90.48
2023-04-01T08:35:02.524Z,90.07
2023-04-01T08:36:02.526Z,89.97
2023-04-01T08:37:02.486Z,90.28
2023-04-01T08:38:02.476Z,89.87
2023-04-01T08:39:02.469Z,89.66
2023-04-01T08:40:02.621Z,89.66
2023-04-01T08:41:02.576Z,89.45
2023-04-01T08:42:02.625Z,89.56
2023-04-01T08:43:02.568Z,89.04
2023-04-01T08:44:02.460Z,89.15
2023-04-01T08:45:02.528Z,89.15
2023-04-01T08:46:02.487Z,88.94
2023-04-01T08:47:02.506Z,89.04
2023-04-01T08:48:02.423Z,88.94
2023-04-01T08:49:02.364Z,89.36
2023-04-01T08:50:02.385Z,89.45
2023-04-01T08:51:03.154Z,89.45
2023-04-01T08:52:02.357Z,89.76
2023-04-01T08:53:02.374Z,89.87
2023-04-01T08:54:02.321Z,89.76
2023-04-01T08:55:02.318Z,89.56
2023-04-01T08:56:02.301Z,89.25
2023-04-01T08:57:02.308Z,89.62
2023-04-01T08:58:02.276Z,89.42
2023-04-01T08:59:02.311Z,89.11
2023-04-01T09:00:02.268Z,88.90
2023-04-01T09:01:02.250Z,89.00
2023-04-01T09:02:02.299Z,89.42
2023-04-01T09:03:02.516Z,89.00
2023-04-01T09:04:02.362Z,89.11
2023-04-01T09:05:02.215Z,88.80
2023-04-01T09:06:02.209Z,89.11
2023-04-01T09:07:02.191Z,88.80
2023-04-01T09:08:02.180Z,88.49
2023-04-01T09:09:02.169Z,88.80
2023-04-01T09:10:02.172Z,88.80
2023-04-01T09:11:02.149Z,89.00
2023-04-01T09:12:02.146Z,88.90
2023-04-01T09:13:02.150Z,88.39
2023-04-01T09:14:02.133Z,87.98
2023-04-01T09:15:02.140Z,87.98
2023-04-01T09:16:02.105Z,88.49
2023-04-01T09:17:02.112Z,88.49
2023-04-01T09:18:02.138Z,88.18
2023-04-01T09:19:02.060Z,88.39
2023-04-01T09:20:02.074Z,88.39
2023-04-01T09:21:02.038Z,88.35
2023-04-01T09:22:02.036Z,88.45
2023-04-01T09:23:02.032Z,88.35
2023-04-01T09:24:02.013Z,88.24
2023-04-01T09:25:02.020Z,87.94
2023-04-01T09:26:02.042Z,88.35
2023-04-01T09:27:02.000Z,88.24
2023-04-01T09:28:01.990Z,87.84
2023-04-01T09:29:01.982Z,87.43
2023-04-01T09:30:01.978Z,87.53
2023-04-01T09:31:01.976Z,87.12
2023-04-01T09:32:01.947Z,87.43
2023-04-01T09:33:01.987Z,87.32
2023-04-01T09:34:01.926Z,87.22
2023-04-01T09:35:01.917Z,87.12
2023-04-01T09:36:01.929Z,87.22
2023-04-01T09:37:01.891Z,87.22
2023-04-01T09:38:01.874Z,87.53
2023-04-01T09:39:01.865Z,87.53
2023-04-01T09:40:01.885Z,86.91
2023-04-01T09:41:01.834Z,86.81
2023-04-01T09:42:01.830Z,87.12
2023-04-01T09:43:01.835Z,87.12
2023-04-01T09:44:01.814Z,87.32
2023-04-01T09:45:01.923Z,87.22
2023-04-01T09:46:01.827Z,87.43
2023-04-01T09:47:01.809Z,87.73
2023-04-01T09:48:01.808Z,87.53
2023-04-01T09:49:01.761Z,87.73
2023-04-01T09:50:01.761Z,87.53
2023-04-01T09:51:01.748Z,87.94
2023-04-01T09:52:01.734Z,87.84
2023-04-01T09:53:01.724Z,87.22
2023-04-01T09:54:01.706Z,87.63
2023-04-01T09:55:01.709Z,88.04
2023-04-01T09:56:01.697Z,87.84
2023-04-01T09:57:01.715Z,87.94
2023-04-01T09:58:01.665Z,87.53
2023-04-01T09:59:01.653Z,87.94
2023-04-01T10:00:01.675Z,88.24
2023-04-01T10:01:01.636Z,88.56
2023-04-01T10:02:01.656Z,87.94
2023-04-01T10:03:01.660Z,87.90
2023-04-01T10:04:01.601Z,88.00
2023-04-01T10:05:01.597Z,88.41
2023-04-01T10:06:01.598Z,88.31
2023-04-01T10:07:01.569Z,87.90
2023-04-01T10:08:01.562Z,88.51
2023-04-01T10:09:01.543Z,88.51
2023-04-01T10:10:01.565Z,89.12
2023-04-01T10:11:01.526Z,88.41
2023-04-01T10:12:01.521Z,88.51
2023-04-01T10:13:01.528Z,89.33
2023-04-01T10:14:01.513Z,89.03
2023-04-01T10:15:01.505Z,89.33
2023-04-01T10:16:01.498Z,89.23
2023-04-01T10:17:01.471Z,89.50
2023-04-01T10:18:01.511Z,89.33
2023-04-01T10:19:01.440Z,89.59
2023-04-01T10:20:01.450Z,89.18
2023-04-01T10:21:01.425Z,89.39
2023-04-01T10:22:01.419Z,89.53
2023-04-01T10:23:01.407Z,89.43
2023-04-01T10:24:01.426Z,89.43
2023-04-01T10:25:01.942Z,89.94
2023-04-01T10:26:01.392Z,90.45
2023-04-01T10:27:01.364Z,90.92
2023-04-01T10:28:01.380Z,91.17
2023-04-01T10:29:01.348Z,91.17
2023-04-01T10:30:01.421Z,91.23
2023-04-01T10:31:01.318Z,91.33
2023-04-01T10:32:01.355Z,91.13
2023-04-01T10:33:01.373Z,91.07
2023-04-01T10:34:01.300Z,90.72
2023-04-01T10:35:01.300Z,90.97
2023-04-01T10:36:01.298Z,90.77
2023-04-01T10:37:01.255Z,90.45
2023-04-01T10:38:01.247Z,90.25
2023-04-01T10:39:01.236Z,90.45
2023-04-01T10:40:01.257Z,90.66
2023-04-01T10:41:01.213Z,90.36
2023-04-01T10:42:01.290Z,90.45
2023-04-01T10:43:01.198Z,90.77
2023-04-01T10:44:01.192Z,91.17
2023-04-01T10:45:01.185Z,91.17
2023-04-01T10:46:01.208Z,91.07
2023-04-01T10:47:01.155Z,91.48
2023-04-01T10:48:01.181Z,91.64
2023-04-01T10:49:01.132Z,91.23
2023-04-01T10:50:01.170Z,90.82
2023-04-01T10:51:01.113Z,90.41
2023-04-01T10:52:01.118Z,90.52
2023-04-01T10:53:01.094Z,90.82
2023-04-01T10:54:01.083Z,91.33
2023-04-01T10:55:01.078Z,91.23
2023-04-01T10:56:01.062Z,91.64
2023-04-01T10:57:01.135Z,91.54
2023-04-01T10:58:01.055Z,91.85
2023-04-01T10:59:01.033Z,91.85
2023-04-01T11:00:01.042Z,91.85
2023-04-01T11:01:01.090Z,92.15
2023-04-01T11:02:10.736Z,92.25
2023-04-01T11:03:02.107Z,91.85
2023-04-01T11:04:00.991Z,91.03
2023-04-01T11:05:00.988Z,90.72
2023-04-01T11:06:00.965Z,90.72
2023-04-01T11:07:00.993Z,90.68
2023-04-01T11:08:06.651Z,91.09
2023-04-01T11:09:01.926Z,91.39
2023-04-01T11:10:00.958Z,90.88
2023-04-01T11:11:00.906Z,90.99
2023-04-01T11:12:00.900Z,90.58
2023-04-01T11:13:00.902Z,90.06
2023-04-01T11:14:00.937Z,89.56
2023-04-01T11:15:00.885Z,89.56
2023-04-01T11:16:00.895Z,90.27
2023-04-01T11:17:00.853Z,89.56
2023-04-01T11:18:00.869Z,89.15
2023-04-01T11:19:00.827Z,89.45
2023-04-01T11:20:00.854Z,89.72
2023-04-01T11:21:00.823Z,90.33
2023-04-01T11:22:00.799Z,90.64
2023-04-01T11:23:00.795Z,89.82
2023-04-01T11:24:05.019Z,89.51
2023-04-01T11:25:00.779Z,89.20
2023-04-01T11:26:00.778Z,88.39
2023-04-01T11:27:00.787Z,88.59
2023-04-01T11:28:00.748Z,89.00
2023-04-01T11:29:00.732Z,89.00
2023-04-01T11:30:00.986Z,88.59
2023-04-01T11:31:00.754Z,88.59
2023-04-01T11:32:00.703Z,88.70
2023-04-01T11:33:00.786Z,89.31
2023-04-01T11:34:00.682Z,89.72
2023-04-01T11:35:00.659Z,89.51
2023-04-01T11:36:00.684Z,89.51
2023-04-01T11:37:00.719Z,90.02
2023-04-01T11:38:00.636Z,90.23
2023-04-01T11:39:00.627Z,90.12
2023-04-01T11:40:00.620Z,89.92
2023-04-01T11:41:00.617Z,89.41
2023-04-01T11:42:00.724Z,89.20
2023-04-01T11:43:00.579Z,89.31
2023-04-01T11:44:00.572Z,89.72
2023-04-01T11:45:00.558Z,90.12
2023-04-01T11:46:00.618Z,90.33
2023-04-01T11:47:00.548Z,90.53
2023-04-01T11:48:00.576Z,90.43
2023-04-01T11:49:00.522Z,90.64
2023-04-01T11:50:00.522Z,89.61
2023-04-01T11:51:00.528Z,89.82
2023-04-01T11:52:00.502Z,89.72
2023-04-01T11:53:00.484Z,89.45
2023-04-01T11:54:00.483Z,89.41
2023-04-01T11:55:00.463Z,89.45
2023-04-01T11:56:00.470Z,89.65
2023-04-01T11:57:00.466Z,90.23
2023-04-01T11:58:00.434Z,90.47
2023-04-01T11:59:00.521Z,90.23
2023-04-01T12:00:00.413Z,90.64
2023-04-01T12:01:00.420Z,90.88
2023-04-01T12:02:00.395Z,90.88
2023-04-01T12:03:00.479Z,91.15
2023-04-01T12:04:00.693Z,91.76
2023-04-01T12:05:00.467Z,91.96
2023-04-01T12:06:00.366Z,92.37
2023-04-01T12:07:00.334Z,92.47
2023-04-01T12:08:00.332Z,92.07
2023-04-01T12:09:00.322Z,91.80
2023-04-01T12:10:00.311Z,91.80
2023-04-01T12:11:00.317Z,92.11
2023-04-01T12:12:00.290Z,92.52
2023-04-01T12:13:01.926Z,92.32
2023-04-01T12:14:00.269Z,92.11
2023-04-01T12:15:00.288Z,92.11
2023-04-01T12:16:00.291Z,92.21
2023-04-01T12:17:00.230Z,92.21
2023-04-01T12:18:00.346Z,92.21
2023-04-01T12:19:00.225Z,92.32
2023-04-01T12:20:00.216Z,92.21
2023-04-01T12:21:00.221Z,92.32
2023-04-01T12:22:00.249Z,92.68
2023-04-01T12:23:00.190Z,92.99
2023-04-01T12:24:00.169Z,92.88
2023-04-01T12:25:00.169Z,93.09
2023-04-01T12:26:00.168Z,92.78
2023-04-01T12:27:00.138Z,92.58
2023-04-01T12:28:00.133Z,91.76
2023-04-01T12:29:00.133Z,91.66
2023-04-01T12:30:00.151Z,91.35
2023-04-01T12:31:00.133Z,91.35
2023-04-01T12:32:00.169Z,91.46
2023-04-01T12:33:00.232Z,91.96
2023-04-01T12:34:00.072Z,92.27
2023-04-01T12:35:00.051Z,92.17
2023-04-01T12:36:00.153Z,92.07
2023-04-01T12:37:00.037Z,92.37
2023-04-01T12:38:00.044Z,92.88
2023-04-01T12:39:00.009Z,93.09
2023-04-01T12:40:00.007Z,93.19
2023-04-01T12:41:00.016Z,93.50
2023-04-01T12:42:00.009Z,93.40
2023-04-01T12:42:59.980Z,93.60
2023-04-01T12:43:59.967Z,93.50
2023-04-01T12:44:59.955Z,93.19
2023-04-01T12:45:59.983Z,92.99
2023-04-01T12:46:59.930Z,93.09
2023-04-01T12:47:59.985Z,93.50
2023-04-01T12:48:59.909Z,93.70
2023-04-01T12:49:59.908Z,93.29
2023-04-01T12:50:59.920Z,92.99
2023-04-01T12:51:59.894Z,92.78